Ann Arbor, MI

11:33 AM EST on November 24, 2014 (GMT -0500)
Walker Briar Works | Change Station
CLOSE
Current Station
Personal Weather Station
Location: Ann Arbor, MI
Elevation: 961 ft
Nearby Weather Stations

Elev 961 ft 42.26 °N, 83.77 °W | Updated 3 minutes ago

Overcast
Overcast
53.2 °F
Feels Like 53.2 °F
N
0.0
Wind Variable Wind from SW
Gusts 3.8 mph

Today
High -- | Low -- °F
--% Chance of Precip.
Yesterday
High -- | Low -- °F
Precip. -- in
7:36 AM 5:06 PM
Waxing Crescent, 6% visible
Pressure 29.12 in
Visibility 10.0 miles
Clouds Few 900 ft
Mostly Cloudy 1300 ft
Overcast 3700 ft
Dew Point 53 °F
Humidity 98%
Rainfall 0.33 in
Snow Depth Not available.
UV 1 out of 12
Pollen .10 out of 12
Air Quality Not available.
Flu Activity Not available.
SPECI KARB 241609Z 20013G18KT 10SM FEW009 BKN013 OVC037 12/11 A2912 RMK AO2 RAB1555E09 P0000 T01220106

More Conditions Fewer Conditions

Pressure 29.12 in
Visibility 10.0 miles
Clouds Few 900 ft
Mostly Cloudy 1300 ft
Overcast 3700 ft
Dew Point 53 °F
Humidity 98%
Rainfall 0.33 in
Snow Depth Not available.
UV 1 out of 12
Pollen .10 out of 12
Air Quality Not available.
Flu Activity Not available.
SPECI KARB 241609Z 20013G18KT 10SM FEW009 BKN013 OVC037 12/11 A2912 RMK AO2 RAB1555E09 P0000 T01220106

More Conditions Fewer Conditions

10-Day Weather Forecast

Almanac

Astronomy

Nov. 24, 2014 Rise Set
Actual Time
Civil Twilight
Nautical Twilight
Astronomical Twilight
Moon
Length of Visible Light
Length of Day
Tomorrow will be .
, % of the Moon is Illuminated

Today's Extremes

State Highs State Lows

Community

WunderPhotos

Upload Photos

1,773,366 photos uploaded!

WunderBlogs® & News

Nearby

Air Quality

  Air Quality AQ Index Pollutant
Not available.

Snow Depth

Station Depth Elevation

Earthquake Activity

City Distance Mag. Time & Date
Minimum magnitude displayed is 2.5.

Coastal Water Temperatures

Place Temperature

Nearby Weather Stations